sensor_id;sensor_type;location;lat;lon;timestamp;P1;durP1;ratioP1;P2;durP2;ratioP2
10450;SDS011;5273;51.290;6.918;2023-02-07T00:00:16;32.17;;;14.23;;
10450;SDS011;5273;51.290;6.918;2023-02-07T00:02:44;42.50;;;14.73;;
10450;SDS011;5273;51.290;6.918;2023-02-07T00:05:11;30.43;;;13.73;;
10450;SDS011;5273;51.290;6.918;2023-02-07T00:07:38;34.27;;;14.13;;
10450;SDS011;5273;51.290;6.918;2023-02-07T00:10:07;31.83;;;13.23;;
10450;SDS011;5273;51.290;6.918;2023-02-07T00:12:34;36.17;;;14.70;;
10450;SDS011;5273;51.290;6.918;2023-02-07T00:15:02;25.73;;;11.63;;
10450;SDS011;5273;51.290;6.918;2023-02-07T00:17:29;33.13;;;13.47;;
10450;SDS011;5273;51.290;6.918;2023-02-07T00:19:56;40.67;;;15.00;;
10450;SDS011;5273;51.290;6.918;2023-02-07T00:22:23;39.17;;;14.73;;
10450;SDS011;5273;51.290;6.918;2023-02-07T00:24:50;28.70;;;12.83;;
10450;SDS011;5273;51.290;6.918;2023-02-07T00:27:18;32.57;;;14.57;;
10450;SDS011;5273;51.290;6.918;2023-02-07T00:29:45;31.17;;;13.83;;
10450;SDS011;5273;51.290;6.918;2023-02-07T00:32:12;35.77;;;14.07;;
10450;SDS011;5273;51.290;6.918;2023-02-07T00:34:40;23.37;;;12.87;;
10450;SDS011;5273;51.290;6.918;2023-02-07T00:37:07;28.83;;;12.57;;
10450;SDS011;5273;51.290;6.918;2023-02-07T00:39:34;28.87;;;14.17;;
10450;SDS011;5273;51.290;6.918;2023-02-07T00:42:02;34.77;;;13.23;;
10450;SDS011;5273;51.290;6.918;2023-02-07T00:44:31;37.00;;;14.10;;
10450;SDS011;5273;51.290;6.918;2023-02-07T00:46:58;34.33;;;13.27;;
10450;SDS011;5273;51.290;6.918;2023-02-07T00:49:25;31.50;;;12.63;;
10450;SDS011;5273;51.290;6.918;2023-02-07T00:51:52;27.43;;;12.33;;
10450;SDS011;5273;51.290;6.918;2023-02-07T00:54:19;34.47;;;13.77;;
10450;SDS011;5273;51.290;6.918;2023-02-07T00:56:46;39.03;;;14.13;;
10450;SDS011;5273;51.290;6.918;2023-02-07T00:59:13;37.53;;;13.33;;
10450;SDS011;5273;51.290;6.918;2023-02-07T01:01:42;32.10;;;12.07;;
10450;SDS011;5273;51.290;6.918;2023-02-07T01:04:09;28.50;;;12.43;;
10450;SDS011;5273;51.290;6.918;2023-02-07T01:06:36;29.23;;;12.37;;
10450;SDS011;5273;51.290;6.918;2023-02-07T01:09:04;33.03;;;12.63;;
10450;SDS011;5273;51.290;6.918;2023-02-07T01:11:32;29.10;;;11.93;;
10450;SDS011;5273;51.290;6.918;2023-02-07T01:13:59;34.30;;;12.30;;
10450;SDS011;5273;51.290;6.918;2023-02-07T01:16:27;31.97;;;12.47;;
10450;SDS011;5273;51.290;6.918;2023-02-07T01:18:56;33.87;;;12.77;;
10450;SDS011;5273;51.290;6.918;2023-02-07T01:21:25;32.97;;;13.07;;
10450;SDS011;5273;51.290;6.918;2023-02-07T01:23:52;27.60;;;11.53;;
10450;SDS011;5273;51.290;6.918;2023-02-07T01:26:21;28.27;;;11.73;;
10450;SDS011;5273;51.290;6.918;2023-02-07T01:28:48;30.20;;;12.67;;
10450;SDS011;5273;51.290;6.918;2023-02-07T01:31:15;31.90;;;13.43;;
10450;SDS011;5273;51.290;6.918;2023-02-07T01:33:42;30.53;;;10.77;;
10450;SDS011;5273;51.290;6.918;2023-02-07T01:36:11;27.63;;;11.90;;
10450;SDS011;5273;51.290;6.918;2023-02-07T01:38:41;29.13;;;11.87;;
10450;SDS011;5273;51.290;6.918;2023-02-07T01:41:08;28.97;;;13.43;;
10450;SDS011;5273;51.290;6.918;2023-02-07T01:43:51;26.00;;;10.80;;
10450;SDS011;5273;51.290;6.918;2023-02-07T01:46:18;27.93;;;10.93;;
10450;SDS011;5273;51.290;6.918;2023-02-07T01:48:46;28.67;;;11.50;;
10450;SDS011;5273;51.290;6.918;2023-02-07T01:51:14;22.83;;;10.30;;
10450;SDS011;5273;51.290;6.918;2023-02-07T01:53:42;25.40;;;9.67;;
10450;SDS011;5273;51.290;6.918;2023-02-07T01:56:10;14.57;;;8.20;;
10450;SDS011;5273;51.290;6.918;2023-02-07T01:58:39;22.20;;;10.23;;
10450;SDS011;5273;51.290;6.918;2023-02-07T02:01:08;19.43;;;8.70;;
10450;SDS011;5273;51.290;6.918;2023-02-07T02:03:38;19.10;;;8.97;;
10450;SDS011;5273;51.290;6.918;2023-02-07T02:06:07;19.67;;;8.53;;
10450;SDS011;5273;51.290;6.918;2023-02-07T02:08:37;18.67;;;8.10;;
10450;SDS011;5273;51.290;6.918;2023-02-07T02:11:09;18.43;;;8.47;;
10450;SDS011;5273;51.290;6.918;2023-02-07T02:13:48;18.17;;;6.93;;
10450;SDS011;5273;51.290;6.918;2023-02-07T02:16:24;16.40;;;7.80;;
10450;SDS011;5273;51.290;6.918;2023-02-07T02:18:59;13.90;;;7.73;;
10450;SDS011;5273;51.290;6.918;2023-02-07T02:28:15;16.77;;;7.60;;
10450;SDS011;5273;51.290;6.918;2023-02-07T02:31:08;16.77;;;7.10;;
10450;SDS011;5273;51.290;6.918;2023-02-07T02:33:48;14.17;;;7.37;;
10450;SDS011;5273;51.290;6.918;2023-02-07T02:36:25;15.10;;;6.90;;
10450;SDS011;5273;51.290;6.918;2023-02-07T02:38:59;11.37;;;6.60;;
10450;SDS011;5273;51.290;6.918;2023-02-07T02:41:34;10.80;;;6.77;;
10450;SDS011;5273;51.290;6.918;2023-02-07T02:44:06;21.10;;;7.63;;
10450;SDS011;5273;51.290;6.918;2023-02-07T02:46:38;11.00;;;6.57;;
10450;SDS011;5273;51.290;6.918;2023-02-07T02:49:09;8.47;;;6.10;;
10450;SDS011;5273;51.290;6.918;2023-02-07T02:51:38;13.00;;;6.10;;
10450;SDS011;5273;51.290;6.918;2023-02-07T02:56:57;13.13;;;6.53;;
10450;SDS011;5273;51.290;6.918;2023-02-07T02:59:50;15.47;;;5.90;;
10450;SDS011;5273;51.290;6.918;2023-02-07T03:02:30;14.87;;;6.83;;
10450;SDS011;5273;51.290;6.918;2023-02-07T03:05:12;15.13;;;6.20;;
10450;SDS011;5273;51.290;6.918;2023-02-07T03:07:49;7.50;;;4.97;;
10450;SDS011;5273;51.290;6.918;2023-02-07T03:10:25;12.00;;;5.90;;
10450;SDS011;5273;51.290;6.918;2023-02-07T03:12:57;9.67;;;5.63;;
10450;SDS011;5273;51.290;6.918;2023-02-07T03:15:32;12.37;;;5.73;;
10450;SDS011;5273;51.290;6.918;2023-02-07T03:18:14;12.03;;;5.77;;
10450;SDS011;5273;51.290;6.918;2023-02-07T03:20:45;14.67;;;6.23;;
10450;SDS011;5273;51.290;6.918;2023-02-07T03:23:17;12.87;;;5.93;;
10450;SDS011;5273;51.290;6.918;2023-02-07T03:25:46;10.93;;;6.63;;
10450;SDS011;5273;51.290;6.918;2023-02-07T03:28:15;14.30;;;5.77;;
10450;SDS011;5273;51.290;6.918;2023-02-07T03:30:43;13.33;;;6.30;;
10450;SDS011;5273;51.290;6.918;2023-02-07T03:33:14;13.57;;;5.63;;
10450;SDS011;5273;51.290;6.918;2023-02-07T03:35:43;13.20;;;6.27;;
10450;SDS011;5273;51.290;6.918;2023-02-07T03:38:17;12.40;;;5.67;;
10450;SDS011;5273;51.290;6.918;2023-02-07T03:40:45;12.33;;;6.37;;
10450;SDS011;5273;51.290;6.918;2023-02-07T03:43:14;10.23;;;5.10;;
10450;SDS011;5273;51.290;6.918;2023-02-07T03:45:44;9.90;;;5.57;;
10450;SDS011;5273;51.290;6.918;2023-02-07T03:48:12;10.90;;;5.23;;
10450;SDS011;5273;51.290;6.918;2023-02-07T03:50:39;10.70;;;5.87;;
10450;SDS011;5273;51.290;6.918;2023-02-07T03:53:07;10.87;;;5.70;;
10450;SDS011;5273;51.290;6.918;2023-02-07T03:55:34;9.90;;;6.27;;
10450;SDS011;5273;51.290;6.918;2023-02-07T03:58:01;9.00;;;5.30;;
10450;SDS011;5273;51.290;6.918;2023-02-07T04:00:28;9.67;;;5.13;;
10450;SDS011;5273;51.290;6.918;2023-02-07T04:02:56;11.30;;;5.70;;
10450;SDS011;5273;51.290;6.918;2023-02-07T04:05:23;8.43;;;5.10;;
10450;SDS011;5273;51.290;6.918;2023-02-07T04:07:50;10.93;;;6.10;;
10450;SDS011;5273;51.290;6.918;2023-02-07T04:10:19;14.27;;;7.57;;
10450;SDS011;5273;51.290;6.918;2023-02-07T04:12:45;8.97;;;5.17;;
10450;SDS011;5273;51.290;6.918;2023-02-07T04:15:13;10.33;;;5.47;;
10450;SDS011;5273;51.290;6.918;2023-02-07T04:17:40;8.63;;;5.00;;
10450;SDS011;5273;51.290;6.918;2023-02-07T04:20:07;9.77;;;5.43;;
10450;SDS011;5273;51.290;6.918;2023-02-07T04:22:35;10.10;;;5.20;;
10450;SDS011;5273;51.290;6.918;2023-02-07T04:25:02;11.70;;;6.00;;
10450;SDS011;5273;51.290;6.918;2023-02-07T04:27:31;11.13;;;5.17;;
10450;SDS011;5273;51.290;6.918;2023-02-07T04:29:57;10.43;;;6.27;;
10450;SDS011;5273;51.290;6.918;2023-02-07T04:32:25;13.63;;;6.60;;
10450;SDS011;5273;51.290;6.918;2023-02-07T04:34:52;10.70;;;5.23;;
10450;SDS011;5273;51.290;6.918;2023-02-07T04:37:19;9.63;;;5.33;;
10450;SDS011;5273;51.290;6.918;2023-02-07T04:39:46;9.07;;;4.63;;
10450;SDS011;5273;51.290;6.918;2023-02-07T04:42:13;8.00;;;5.13;;
10450;SDS011;5273;51.290;6.918;2023-02-07T04:44:41;8.70;;;4.87;;
10450;SDS011;5273;51.290;6.918;2023-02-07T04:47:08;6.77;;;4.70;;
10450;SDS011;5273;51.290;6.918;2023-02-07T04:49:35;7.13;;;4.30;;
10450;SDS011;5273;51.290;6.918;2023-02-07T04:52:02;9.33;;;4.60;;
10450;SDS011;5273;51.290;6.918;2023-02-07T04:54:30;7.30;;;4.73;;
10450;SDS011;5273;51.290;6.918;2023-02-07T04:56:57;8.43;;;5.40;;
10450;SDS011;5273;51.290;6.918;2023-02-07T04:59:24;9.87;;;4.87;;
10450;SDS011;5273;51.290;6.918;2023-02-07T05:01:52;11.43;;;5.50;;
10450;SDS011;5273;51.290;6.918;2023-02-07T05:04:19;11.77;;;5.93;;
10450;SDS011;5273;51.290;6.918;2023-02-07T05:06:46;12.27;;;5.33;;
10450;SDS011;5273;51.290;6.918;2023-02-07T05:09:13;9.20;;;5.53;;
10450;SDS011;5273;51.290;6.918;2023-02-07T05:11:40;7.40;;;5.20;;
10450;SDS011;5273;51.290;6.918;2023-02-07T05:14:08;9.43;;;5.50;;
10450;SDS011;5273;51.290;6.918;2023-02-07T05:16:35;9.50;;;5.27;;
10450;SDS011;5273;51.290;6.918;2023-02-07T05:19:03;9.73;;;5.43;;
10450;SDS011;5273;51.290;6.918;2023-02-07T05:21:30;8.17;;;4.90;;
10450;SDS011;5273;51.290;6.918;2023-02-07T05:23:57;9.50;;;5.50;;
10450;SDS011;5273;51.290;6.918;2023-02-07T05:26:24;7.83;;;3.87;;
10450;SDS011;5273;51.290;6.918;2023-02-07T05:28:51;6.63;;;4.50;;
10450;SDS011;5273;51.290;6.918;2023-02-07T05:31:18;10.00;;;6.10;;
10450;SDS011;5273;51.290;6.918;2023-02-07T05:34:07;8.13;;;4.73;;
10450;SDS011;5273;51.290;6.918;2023-02-07T05:36:33;9.77;;;4.80;;
10450;SDS011;5273;51.290;6.918;2023-02-07T05:39:00;8.47;;;4.60;;
10450;SDS011;5273;51.290;6.918;2023-02-07T05:41:28;7.57;;;4.50;;
10450;SDS011;5273;51.290;6.918;2023-02-07T05:43:55;8.27;;;4.70;;
10450;SDS011;5273;51.290;6.918;2023-02-07T05:46:22;5.90;;;4.40;;
10450;SDS011;5273;51.290;6.918;2023-02-07T05:48:49;7.33;;;4.07;;
10450;SDS011;5273;51.290;6.918;2023-02-07T05:51:17;11.23;;;5.60;;
10450;SDS011;5273;51.290;6.918;2023-02-07T05:53:44;8.13;;;4.27;;
10450;SDS011;5273;51.290;6.918;2023-02-07T05:56:11;7.80;;;5.60;;
10450;SDS011;5273;51.290;6.918;2023-02-07T05:58:38;7.83;;;5.27;;
10450;SDS011;5273;51.290;6.918;2023-02-07T06:01:05;6.50;;;4.00;;
10450;SDS011;5273;51.290;6.918;2023-02-07T06:03:33;8.87;;;4.33;;
10450;SDS011;5273;51.290;6.918;2023-02-07T06:06:00;7.10;;;4.23;;
10450;SDS011;5273;51.290;6.918;2023-02-07T06:08:28;6.57;;;4.53;;
10450;SDS011;5273;51.290;6.918;2023-02-07T06:10:55;5.17;;;4.00;;
10450;SDS011;5273;51.290;6.918;2023-02-07T06:13:22;7.27;;;3.77;;
10450;SDS011;5273;51.290;6.918;2023-02-07T06:15:49;6.17;;;4.30;;
10450;SDS011;5273;51.290;6.918;2023-02-07T06:18:16;9.47;;;3.83;;
10450;SDS011;5273;51.290;6.918;2023-02-07T06:20:43;5.17;;;4.10;;
10450;SDS011;5273;51.290;6.918;2023-02-07T06:23:10;5.20;;;4.27;;
10450;SDS011;5273;51.290;6.918;2023-02-07T06:25:39;6.07;;;3.87;;
10450;SDS011;5273;51.290;6.918;2023-02-07T06:28:06;5.87;;;4.07;;
10450;SDS011;5273;51.290;6.918;2023-02-07T06:30:33;7.00;;;3.97;;
10450;SDS011;5273;51.290;6.918;2023-02-07T06:33:00;5.03;;;3.63;;
10450;SDS011;5273;51.290;6.918;2023-02-07T06:35:27;7.50;;;4.63;;
10450;SDS011;5273;51.290;6.918;2023-02-07T06:37:54;7.67;;;4.47;;
10450;SDS011;5273;51.290;6.918;2023-02-07T06:40:21;8.43;;;4.23;;
10450;SDS011;5273;51.290;6.918;2023-02-07T06:42:49;6.13;;;4.30;;
10450;SDS011;5273;51.290;6.918;2023-02-07T06:45:16;7.83;;;4.10;;
10450;SDS011;5273;51.290;6.918;2023-02-07T06:47:43;5.30;;;3.70;;
10450;SDS011;5273;51.290;6.918;2023-02-07T06:50:10;4.73;;;3.63;;
10450;SDS011;5273;51.290;6.918;2023-02-07T06:52:38;6.00;;;3.93;;
10450;SDS011;5273;51.290;6.918;2023-02-07T06:55:05;5.87;;;3.53;;
10450;SDS011;5273;51.290;6.918;2023-02-07T06:57:33;5.10;;;3.80;;
10450;SDS011;5273;51.290;6.918;2023-02-07T07:00:02;4.97;;;3.40;;
10450;SDS011;5273;51.290;6.918;2023-02-07T07:02:29;5.87;;;3.70;;
10450;SDS011;5273;51.290;6.918;2023-02-07T07:04:56;11.17;;;4.57;;
10450;SDS011;5273;51.290;6.918;2023-02-07T07:07:23;6.30;;;3.87;;
10450;SDS011;5273;51.290;6.918;2023-02-07T07:09:50;9.33;;;4.40;;
10450;SDS011;5273;51.290;6.918;2023-02-07T07:12:18;7.60;;;4.30;;
10450;SDS011;5273;51.290;6.918;2023-02-07T07:14:45;13.47;;;5.13;;
10450;SDS011;5273;51.290;6.918;2023-02-07T07:17:13;5.97;;;4.47;;
10450;SDS011;5273;51.290;6.918;2023-02-07T07:19:40;11.53;;;3.80;;
10450;SDS011;5273;51.290;6.918;2023-02-07T07:22:07;6.57;;;3.80;;
10450;SDS011;5273;51.290;6.918;2023-02-07T07:24:34;10.33;;;4.40;;
10450;SDS011;5273;51.290;6.918;2023-02-07T07:27:01;9.17;;;4.00;;
10450;SDS011;5273;51.290;6.918;2023-02-07T07:29:28;7.60;;;3.80;;
10450;SDS011;5273;51.290;6.918;2023-02-07T07:31:55;5.87;;;3.70;;
10450;SDS011;5273;51.290;6.918;2023-02-07T07:34:24;8.73;;;3.30;;
10450;SDS011;5273;51.290;6.918;2023-02-07T07:36:51;7.20;;;3.47;;
10450;SDS011;5273;51.290;6.918;2023-02-07T07:39:20;4.10;;;3.00;;
10450;SDS011;5273;51.290;6.918;2023-02-07T07:41:47;6.10;;;3.27;;
10450;SDS011;5273;51.290;6.918;2023-02-07T07:44:14;3.27;;;2.90;;
10450;SDS011;5273;51.290;6.918;2023-02-07T07:46:42;5.00;;;3.10;;
10450;SDS011;5273;51.290;6.918;2023-02-07T07:49:09;4.37;;;3.63;;
10450;SDS011;5273;51.290;6.918;2023-02-07T07:51:37;4.83;;;3.63;;
10450;SDS011;5273;51.290;6.918;2023-02-07T07:54:04;4.63;;;3.43;;
10450;SDS011;5273;51.290;6.918;2023-02-07T07:56:31;4.25;;;3.40;;
10450;SDS011;5273;51.290;6.918;2023-02-07T07:58:59;7.28;;;3.53;;
10450;SDS011;5273;51.290;6.918;2023-02-07T08:01:26;5.35;;;3.13;;
10450;SDS011;5273;51.290;6.918;2023-02-07T08:03:53;4.88;;;3.63;;
10450;SDS011;5273;51.290;6.918;2023-02-07T08:06:20;3.60;;;3.30;;
10450;SDS011;5273;51.290;6.918;2023-02-07T08:08:49;4.95;;;3.88;;
10450;SDS011;5273;51.290;6.918;2023-02-07T08:11:16;6.80;;;3.70;;
10450;SDS011;5273;51.290;6.918;2023-02-07T08:13:43;3.97;;;3.50;;
10450;SDS011;5273;51.290;6.918;2023-02-07T08:16:10;4.78;;;3.65;;
10450;SDS011;5273;51.290;6.918;2023-02-07T08:18:37;5.78;;;3.60;;
10450;SDS011;5273;51.290;6.918;2023-02-07T08:21:04;4.85;;;4.15;;
10450;SDS011;5273;51.290;6.918;2023-02-07T08:23:31;4.88;;;3.58;;
10450;SDS011;5273;51.290;6.918;2023-02-07T08:26:00;3.63;;;3.30;;
10450;SDS011;5273;51.290;6.918;2023-02-07T08:28:27;4.32;;;3.47;;
10450;SDS011;5273;51.290;6.918;2023-02-07T08:30:57;3.65;;;3.30;;
10450;SDS011;5273;51.290;6.918;2023-02-07T08:33:25;4.72;;;3.10;;
10450;SDS011;5273;51.290;6.918;2023-02-07T08:35:52;3.78;;;3.10;;
10450;SDS011;5273;51.290;6.918;2023-02-07T08:38:19;4.07;;;3.28;;
10450;SDS011;5273;51.290;6.918;2023-02-07T08:40:46;3.95;;;2.90;;
10450;SDS011;5273;51.290;6.918;2023-02-07T08:43:15;4.10;;;3.35;;
10450;SDS011;5273;51.290;6.918;2023-02-07T08:45:42;3.97;;;3.03;;
10450;SDS011;5273;51.290;6.918;2023-02-07T08:48:12;3.75;;;3.08;;
10450;SDS011;5273;51.290;6.918;2023-02-07T08:50:39;3.47;;;3.15;;
10450;SDS011;5273;51.290;6.918;2023-02-07T08:53:06;5.47;;;3.45;;
10450;SDS011;5273;51.290;6.918;2023-02-07T08:55:34;3.50;;;3.17;;
10450;SDS011;5273;51.290;6.918;2023-02-07T08:58:01;4.30;;;3.78;;
10450;SDS011;5273;51.290;6.918;2023-02-07T09:00:29;3.63;;;3.30;;
10450;SDS011;5273;51.290;6.918;2023-02-07T09:02:59;4.05;;;3.50;;
10450;SDS011;5273;51.290;6.918;2023-02-07T09:05:27;3.88;;;3.47;;
10450;SDS011;5273;51.290;6.918;2023-02-07T09:07:57;4.32;;;3.55;;
10450;SDS011;5273;51.290;6.918;2023-02-07T09:10:24;4.25;;;3.30;;
10450;SDS011;5273;51.290;6.918;2023-02-07T09:12:51;5.95;;;3.75;;
10450;SDS011;5273;51.290;6.918;2023-02-07T09:15:18;5.68;;;3.70;;
10450;SDS011;5273;51.290;6.918;2023-02-07T09:17:46;3.97;;;3.58;;
10450;SDS011;5273;51.290;6.918;2023-02-07T09:20:13;5.10;;;4.35;;
10450;SDS011;5273;51.290;6.918;2023-02-07T09:22:40;5.10;;;4.60;;
10450;SDS011;5273;51.290;6.918;2023-02-07T09:25:25;5.10;;;3.60;;
10450;SDS011;5273;51.290;6.918;2023-02-07T09:27:52;8.43;;;4.35;;
10450;SDS011;5273;51.290;6.918;2023-02-07T09:30:20;3.90;;;3.50;;
10450;SDS011;5273;51.290;6.918;2023-02-07T09:32:48;5.40;;;3.70;;
10450;SDS011;5273;51.290;6.918;2023-02-07T09:35:16;4.80;;;3.78;;
10450;SDS011;5273;51.290;6.918;2023-02-07T09:37:43;3.95;;;3.55;;
10450;SDS011;5273;51.290;6.918;2023-02-07T09:40:11;4.25;;;3.55;;
10450;SDS011;5273;51.290;6.918;2023-02-07T09:42:46;4.20;;;3.80;;
10450;SDS011;5273;51.290;6.918;2023-02-07T09:45:18;5.95;;;4.00;;
10450;SDS011;5273;51.290;6.918;2023-02-07T09:47:50;4.50;;;4.10;;
10450;SDS011;5273;51.290;6.918;2023-02-07T09:50:24;4.03;;;3.50;;
10450;SDS011;5273;51.290;6.918;2023-02-07T09:52:54;5.55;;;3.78;;
10450;SDS011;5273;51.290;6.918;2023-02-07T09:55:24;4.00;;;3.67;;
10450;SDS011;5273;51.290;6.918;2023-02-07T09:57:54;4.05;;;3.65;;
10450;SDS011;5273;51.290;6.918;2023-02-07T10:00:25;3.83;;;3.35;;
10450;SDS011;5273;51.290;6.918;2023-02-07T10:02:56;4.05;;;3.72;;
10450;SDS011;5273;51.290;6.918;2023-02-07T10:05:28;3.97;;;3.58;;
10450;SDS011;5273;51.290;6.918;2023-02-07T10:07:59;4.57;;;3.67;;
10450;SDS011;5273;51.290;6.918;2023-02-07T10:10:30;3.60;;;3.30;;
10450;SDS011;5273;51.290;6.918;2023-02-07T10:13:17;3.40;;;3.10;;
10450;SDS011;5273;51.290;6.918;2023-02-07T10:15:56;3.30;;;3.10;;
10450;SDS011;5273;51.290;6.918;2023-02-07T10:18:39;3.78;;;3.47;;
10450;SDS011;5273;51.290;6.918;2023-02-07T10:21:13;4.03;;;3.63;;
10450;SDS011;5273;51.290;6.918;2023-02-07T10:23:49;3.65;;;3.35;;
10450;SDS011;5273;51.290;6.918;2023-02-07T10:26:30;3.92;;;3.58;;
10450;SDS011;5273;51.290;6.918;2023-02-07T10:29:05;3.63;;;3.33;;
10450;SDS011;5273;51.290;6.918;2023-02-07T10:31:50;3.67;;;3.38;;
10450;SDS011;5273;51.290;6.918;2023-02-07T10:34:21;3.75;;;3.45;;
10450;SDS011;5273;51.290;6.918;2023-02-07T10:36:50;3.40;;;3.20;;
10450;SDS011;5273;51.290;6.918;2023-02-07T10:39:20;3.75;;;3.45;;
10450;SDS011;5273;51.290;6.918;2023-02-07T10:41:51;3.47;;;3.17;;
10450;SDS011;5273;51.290;6.918;2023-02-07T10:44:20;4.25;;;3.60;;
10450;SDS011;5273;51.290;6.918;2023-02-07T10:46:49;4.40;;;3.75;;
10450;SDS011;5273;51.290;6.918;2023-02-07T10:49:22;3.63;;;3.33;;
10450;SDS011;5273;51.290;6.918;2023-02-07T10:51:51;4.05;;;3.47;;
10450;SDS011;5273;51.290;6.918;2023-02-07T10:54:20;3.13;;;2.80;;
10450;SDS011;5273;51.290;6.918;2023-02-07T10:56:49;3.60;;;3.30;;
10450;SDS011;5273;51.290;6.918;2023-02-07T10:59:28;3.33;;;2.97;;
10450;SDS011;5273;51.290;6.918;2023-02-07T11:02:00;3.90;;;3.60;;
10450;SDS011;5273;51.290;6.918;2023-02-07T11:04:34;3.70;;;3.40;;
10450;SDS011;5273;51.290;6.918;2023-02-07T11:07:03;3.83;;;3.45;;
10450;SDS011;5273;51.290;6.918;2023-02-07T11:09:32;5.93;;;3.78;;
10450;SDS011;5273;51.290;6.918;2023-02-07T11:12:04;3.60;;;3.40;;
10450;SDS011;5273;51.290;6.918;2023-02-07T11:14:39;4.10;;;3.80;;
10450;SDS011;5273;51.290;6.918;2023-02-07T11:17:06;3.65;;;3.35;;
10450;SDS011;5273;51.290;6.918;2023-02-07T11:19:35;5.00;;;3.42;;
10450;SDS011;5273;51.290;6.918;2023-02-07T11:22:06;3.47;;;3.17;;
10450;SDS011;5273;51.290;6.918;2023-02-07T11:24:42;3.50;;;3.20;;
10450;SDS011;5273;51.290;6.918;2023-02-07T11:27:10;3.35;;;3.15;;
10450;SDS011;5273;51.290;6.918;2023-02-07T11:29:44;3.33;;;3.03;;
10450;SDS011;5273;51.290;6.918;2023-02-07T11:32:13;3.83;;;3.10;;
10450;SDS011;5273;51.290;6.918;2023-02-07T11:34:45;4.15;;;3.80;;
10450;SDS011;5273;51.290;6.918;2023-02-07T11:37:19;3.95;;;3.50;;
10450;SDS011;5273;51.290;6.918;2023-02-07T11:39:52;3.90;;;3.42;;
10450;SDS011;5273;51.290;6.918;2023-02-07T11:42:21;4.30;;;3.30;;
10450;SDS011;5273;51.290;6.918;2023-02-07T11:44:55;4.82;;;3.30;;
10450;SDS011;5273;51.290;6.918;2023-02-07T11:47:24;4.18;;;3.22;;
10450;SDS011;5273;51.290;6.918;2023-02-07T11:49:55;3.45;;;3.15;;
10450;SDS011;5273;51.290;6.918;2023-02-07T11:52:23;3.60;;;3.28;;
10450;SDS011;5273;51.290;6.918;2023-02-07T11:54:51;3.03;;;2.72;;
10450;SDS011;5273;51.290;6.918;2023-02-07T11:57:22;4.00;;;3.40;;
10450;SDS011;5273;51.290;6.918;2023-02-07T11:59:58;6.87;;;3.50;;
10450;SDS011;5273;51.290;6.918;2023-02-07T12:02:32;3.57;;;3.20;;
10450;SDS011;5273;51.290;6.918;2023-02-07T12:05:13;5.70;;;3.50;;
10450;SDS011;5273;51.290;6.918;2023-02-07T12:07:45;4.93;;;3.40;;
10450;SDS011;5273;51.290;6.918;2023-02-07T12:10:18;4.73;;;3.60;;
10450;SDS011;5273;51.290;6.918;2023-02-07T12:12:49;3.60;;;3.20;;
10450;SDS011;5273;51.290;6.918;2023-02-07T12:15:20;3.63;;;3.27;;
10450;SDS011;5273;51.290;6.918;2023-02-07T12:17:53;3.90;;;3.40;;
10450;SDS011;5273;51.290;6.918;2023-02-07T12:20:26;5.03;;;3.30;;
10450;SDS011;5273;51.290;6.918;2023-02-07T12:22:57;3.37;;;3.07;;
10450;SDS011;5273;51.290;6.918;2023-02-07T12:25:31;3.87;;;2.97;;
10450;SDS011;5273;51.290;6.918;2023-02-07T12:28:09;4.47;;;3.30;;
10450;SDS011;5273;51.290;6.918;2023-02-07T12:30:44;4.10;;;3.13;;
10450;SDS011;5273;51.290;6.918;2023-02-07T12:33:18;6.80;;;3.13;;
10450;SDS011;5273;51.290;6.918;2023-02-07T12:35:56;4.00;;;3.00;;
10450;SDS011;5273;51.290;6.918;2023-02-07T12:38:28;3.80;;;2.87;;
10450;SDS011;5273;51.290;6.918;2023-02-07T12:41:02;3.67;;;3.13;;
10450;SDS011;5273;51.290;6.918;2023-02-07T12:43:39;3.40;;;3.10;;
10450;SDS011;5273;51.290;6.918;2023-02-07T12:46:15;6.00;;;3.20;;
10450;SDS011;5273;51.290;6.918;2023-02-07T12:48:53;4.00;;;3.33;;
10450;SDS011;5273;51.290;6.918;2023-02-07T12:51:49;3.57;;;3.10;;
10450;SDS011;5273;51.290;6.918;2023-02-07T12:54:28;3.63;;;3.30;;
10450;SDS011;5273;51.290;6.918;2023-02-07T12:57:03;5.20;;;3.53;;
10450;SDS011;5273;51.290;6.918;2023-02-07T12:59:41;4.33;;;3.37;;
10450;SDS011;5273;51.290;6.918;2023-02-07T13:08:03;4.53;;;3.40;;
10450;SDS011;5273;51.290;6.918;2023-02-07T13:10:40;6.57;;;3.23;;
10450;SDS011;5273;51.290;6.918;2023-02-07T13:13:16;4.83;;;3.80;;
10450;SDS011;5273;51.290;6.918;2023-02-07T13:15:49;4.63;;;3.67;;
10450;SDS011;5273;51.290;6.918;2023-02-07T13:18:21;3.50;;;3.20;;
10450;SDS011;5273;51.290;6.918;2023-02-07T13:21:00;6.17;;;3.87;;
10450;SDS011;5273;51.290;6.918;2023-02-07T13:23:35;3.47;;;3.17;;
10450;SDS011;5273;51.290;6.918;2023-02-07T13:26:07;5.63;;;3.40;;
10450;SDS011;5273;51.290;6.918;2023-02-07T13:28:38;3.87;;;3.30;;
10450;SDS011;5273;51.290;6.918;2023-02-07T13:31:10;4.07;;;3.10;;
10450;SDS011;5273;51.290;6.918;2023-02-07T13:33:41;3.53;;;3.20;;
10450;SDS011;5273;51.290;6.918;2023-02-07T13:36:12;3.57;;;3.00;;
10450;SDS011;5273;51.290;6.918;2023-02-07T13:38:57;4.90;;;3.17;;
10450;SDS011;5273;51.290;6.918;2023-02-07T13:41:33;4.27;;;3.47;;
10450;SDS011;5273;51.290;6.918;2023-02-07T13:44:10;3.23;;;2.80;;
10450;SDS011;5273;51.290;6.918;2023-02-07T13:46:53;3.40;;;3.07;;
10450;SDS011;5273;51.290;6.918;2023-02-07T13:49:44;3.63;;;2.73;;
10450;SDS011;5273;51.290;6.918;2023-02-07T13:52:20;5.70;;;3.17;;
10450;SDS011;5273;51.290;6.918;2023-02-07T13:54:57;4.37;;;3.30;;
10450;SDS011;5273;51.290;6.918;2023-02-07T13:57:38;4.23;;;3.67;;
10450;SDS011;5273;51.290;6.918;2023-02-07T14:00:25;4.63;;;3.23;;
10450;SDS011;5273;51.290;6.918;2023-02-07T14:02:53;4.77;;;3.50;;
10450;SDS011;5273;51.290;6.918;2023-02-07T14:05:22;4.43;;;2.73;;
10450;SDS011;5273;51.290;6.918;2023-02-07T14:07:56;4.23;;;2.80;;
10450;SDS011;5273;51.290;6.918;2023-02-07T14:10:35;3.73;;;3.10;;
10450;SDS011;5273;51.290;6.918;2023-02-07T14:13:05;6.37;;;2.97;;
10450;SDS011;5273;51.290;6.918;2023-02-07T14:18:30;4.33;;;3.47;;
10450;SDS011;5273;51.290;6.918;2023-02-07T14:21:23;2.97;;;2.50;;
10450;SDS011;5273;51.290;6.918;2023-02-07T14:23:58;3.77;;;3.00;;
10450;SDS011;5273;51.290;6.918;2023-02-07T14:26:49;4.00;;;3.10;;
10450;SDS011;5273;51.290;6.918;2023-02-07T14:32:29;3.40;;;2.60;;
10450;SDS011;5273;51.290;6.918;2023-02-07T14:35:05;4.87;;;2.90;;
10450;SDS011;5273;51.290;6.918;2023-02-07T14:37:50;3.27;;;2.70;;
10450;SDS011;5273;51.290;6.918;2023-02-07T14:40:21;5.67;;;2.93;;
10450;SDS011;5273;51.290;6.918;2023-02-07T14:42:58;4.63;;;2.80;;
10450;SDS011;5273;51.290;6.918;2023-02-07T14:45:28;5.50;;;3.23;;
10450;SDS011;5273;51.290;6.918;2023-02-07T14:47:56;5.40;;;3.20;;
10450;SDS011;5273;51.290;6.918;2023-02-07T14:50:24;3.83;;;2.70;;
10450;SDS011;5273;51.290;6.918;2023-02-07T14:52:55;3.10;;;2.47;;
10450;SDS011;5273;51.290;6.918;2023-02-07T14:55:27;4.73;;;2.80;;
10450;SDS011;5273;51.290;6.918;2023-02-07T14:58:00;3.47;;;2.70;;
10450;SDS011;5273;51.290;6.918;2023-02-07T15:00:31;3.60;;;3.10;;
10450;SDS011;5273;51.290;6.918;2023-02-07T15:03:02;4.03;;;2.93;;
10450;SDS011;5273;51.290;6.918;2023-02-07T15:05:37;2.90;;;2.50;;
10450;SDS011;5273;51.290;6.918;2023-02-07T15:08:14;3.83;;;3.20;;
10450;SDS011;5273;51.290;6.918;2023-02-07T15:10:43;2.97;;;2.57;;
10450;SDS011;5273;51.290;6.918;2023-02-07T15:13:19;3.07;;;2.47;;
10450;SDS011;5273;51.290;6.918;2023-02-07T15:15:50;3.87;;;2.90;;
10450;SDS011;5273;51.290;6.918;2023-02-07T15:18:21;3.97;;;3.37;;
10450;SDS011;5273;51.290;6.918;2023-02-07T15:20:50;3.77;;;3.00;;
10450;SDS011;5273;51.290;6.918;2023-02-07T15:23:20;3.03;;;2.63;;
10450;SDS011;5273;51.290;6.918;2023-02-07T15:25:48;3.47;;;2.97;;
10450;SDS011;5273;51.290;6.918;2023-02-07T15:28:20;4.30;;;2.70;;
10450;SDS011;5273;51.290;6.918;2023-02-07T15:30:59;3.20;;;2.73;;
10450;SDS011;5273;51.290;6.918;2023-02-07T15:33:28;4.93;;;3.20;;
10450;SDS011;5273;51.290;6.918;2023-02-07T15:36:00;4.03;;;2.73;;